sensor_id;sensor_type;location;lat;lon;timestamp;P1;durP1;ratioP1;P2;durP2;ratioP2
8978;SDS011;4524;51.364;5.448;2023-08-31T00:01:32;4.07;;;1.50;;
8978;SDS011;4524;51.364;5.448;2023-08-31T00:04:01;5.47;;;1.50;;
8978;SDS011;4524;51.364;5.448;2023-08-31T00:06:30;2.65;;;1.75;;
8978;SDS011;4524;51.364;5.448;2023-08-31T00:08:58;3.70;;;1.50;;
8978;SDS011;4524;51.364;5.448;2023-08-31T00:11:27;4.55;;;2.00;;
8978;SDS011;4524;51.364;5.448;2023-08-31T00:13:55;3.35;;;2.03;;
8978;SDS011;4524;51.364;5.448;2023-08-31T00:16:23;3.53;;;1.70;;
8978;SDS011;4524;51.364;5.448;2023-08-31T00:18:52;3.38;;;1.70;;
8978;SDS011;4524;51.364;5.448;2023-08-31T00:21:22;3.25;;;1.73;;
8978;SDS011;4524;51.364;5.448;2023-08-31T00:23:50;3.80;;;1.73;;
8978;SDS011;4524;51.364;5.448;2023-08-31T00:26:20;3.28;;;1.42;;
8978;SDS011;4524;51.364;5.448;2023-08-31T00:28:49;2.28;;;1.33;;
8978;SDS011;4524;51.364;5.448;2023-08-31T00:31:17;3.72;;;1.80;;
8978;SDS011;4524;51.364;5.448;2023-08-31T00:33:45;4.10;;;1.77;;
8978;SDS011;4524;51.364;5.448;2023-08-31T00:36:16;3.35;;;1.45;;
8978;SDS011;4524;51.364;5.448;2023-08-31T00:38:46;3.35;;;1.63;;
8978;SDS011;4524;51.364;5.448;2023-08-31T00:41:14;3.33;;;1.67;;
8978;SDS011;4524;51.364;5.448;2023-08-31T00:43:43;7.32;;;2.33;;
8978;SDS011;4524;51.364;5.448;2023-08-31T00:46:11;5.43;;;2.10;;
8978;SDS011;4524;51.364;5.448;2023-08-31T00:48:41;3.75;;;1.67;;
8978;SDS011;4524;51.364;5.448;2023-08-31T00:51:09;4.13;;;1.38;;
8978;SDS011;4524;51.364;5.448;2023-08-31T00:53:37;3.63;;;2.10;;
8978;SDS011;4524;51.364;5.448;2023-08-31T00:56:07;3.38;;;2.15;;
8978;SDS011;4524;51.364;5.448;2023-08-31T00:58:35;3.72;;;1.90;;
8978;SDS011;4524;51.364;5.448;2023-08-31T01:01:08;3.47;;;1.80;;
8978;SDS011;4524;51.364;5.448;2023-08-31T01:03:43;5.50;;;1.85;;
8978;SDS011;4524;51.364;5.448;2023-08-31T01:06:18;3.28;;;1.90;;
8978;SDS011;4524;51.364;5.448;2023-08-31T01:08:59;3.03;;;1.70;;
8978;SDS011;4524;51.364;5.448;2023-08-31T01:11:40;4.72;;;1.90;;
8978;SDS011;4524;51.364;5.448;2023-08-31T01:14:17;5.38;;;2.13;;
8978;SDS011;4524;51.364;5.448;2023-08-31T01:16:50;3.05;;;1.70;;
8978;SDS011;4524;51.364;5.448;2023-08-31T01:19:24;4.25;;;2.17;;
8978;SDS011;4524;51.364;5.448;2023-08-31T01:22:03;5.32;;;1.98;;
8978;SDS011;4524;51.364;5.448;2023-08-31T01:24:38;7.00;;;2.35;;
8978;SDS011;4524;51.364;5.448;2023-08-31T01:27:07;4.63;;;1.90;;
8978;SDS011;4524;51.364;5.448;2023-08-31T01:29:35;5.00;;;1.95;;
8978;SDS011;4524;51.364;5.448;2023-08-31T01:32:05;3.60;;;2.13;;
8978;SDS011;4524;51.364;5.448;2023-08-31T01:34:36;3.35;;;1.92;;
8978;SDS011;4524;51.364;5.448;2023-08-31T01:37:08;3.83;;;2.15;;
8978;SDS011;4524;51.364;5.448;2023-08-31T01:42:23;3.20;;;1.50;;
8978;SDS011;4524;51.364;5.448;2023-08-31T01:44:55;3.80;;;1.80;;
8978;SDS011;4524;51.364;5.448;2023-08-31T01:47:24;5.53;;;2.45;;
8978;SDS011;4524;51.364;5.448;2023-08-31T01:49:53;4.72;;;2.53;;
8978;SDS011;4524;51.364;5.448;2023-08-31T01:52:23;4.43;;;2.20;;
8978;SDS011;4524;51.364;5.448;2023-08-31T01:54:52;6.28;;;2.15;;
8978;SDS011;4524;51.364;5.448;2023-08-31T01:57:20;7.82;;;2.47;;
8978;SDS011;4524;51.364;5.448;2023-08-31T02:00:02;3.80;;;1.90;;
8978;SDS011;4524;51.364;5.448;2023-08-31T02:02:39;4.57;;;2.22;;
8978;SDS011;4524;51.364;5.448;2023-08-31T02:05:08;5.82;;;2.05;;
8978;SDS011;4524;51.364;5.448;2023-08-31T02:07:36;6.25;;;2.22;;
8978;SDS011;4524;51.364;5.448;2023-08-31T02:10:08;4.35;;;2.55;;
8978;SDS011;4524;51.364;5.448;2023-08-31T02:12:36;3.70;;;2.28;;
8978;SDS011;4524;51.364;5.448;2023-08-31T02:15:04;4.57;;;2.25;;
8978;SDS011;4524;51.364;5.448;2023-08-31T02:17:33;4.22;;;2.63;;
8978;SDS011;4524;51.364;5.448;2023-08-31T02:22:33;3.30;;;2.05;;
8978;SDS011;4524;51.364;5.448;2023-08-31T02:25:02;4.85;;;2.13;;
8978;SDS011;4524;51.364;5.448;2023-08-31T02:27:33;5.45;;;2.42;;
8978;SDS011;4524;51.364;5.448;2023-08-31T02:30:01;3.55;;;2.10;;
8978;SDS011;4524;51.364;5.448;2023-08-31T02:32:33;9.02;;;2.85;;
8978;SDS011;4524;51.364;5.448;2023-08-31T02:35:01;6.32;;;2.25;;
8978;SDS011;4524;51.364;5.448;2023-08-31T02:37:49;8.35;;;2.40;;
8978;SDS011;4524;51.364;5.448;2023-08-31T02:40:18;8.32;;;2.00;;
8978;SDS011;4524;51.364;5.448;2023-08-31T02:42:51;3.65;;;2.17;;
8978;SDS011;4524;51.364;5.448;2023-08-31T02:45:20;5.28;;;2.10;;
8978;SDS011;4524;51.364;5.448;2023-08-31T02:47:47;5.32;;;2.30;;
8978;SDS011;4524;51.364;5.448;2023-08-31T02:50:16;4.90;;;2.10;;
8978;SDS011;4524;51.364;5.448;2023-08-31T02:52:45;6.80;;;2.45;;
8978;SDS011;4524;51.364;5.448;2023-08-31T02:55:13;7.85;;;2.85;;
8978;SDS011;4524;51.364;5.448;2023-08-31T02:57:41;4.60;;;2.67;;
8978;SDS011;4524;51.364;5.448;2023-08-31T03:00:11;4.22;;;2.10;;
8978;SDS011;4524;51.364;5.448;2023-08-31T03:02:40;5.75;;;2.28;;
8978;SDS011;4524;51.364;5.448;2023-08-31T03:05:08;5.72;;;2.53;;
8978;SDS011;4524;51.364;5.448;2023-08-31T03:07:36;4.38;;;2.30;;
8978;SDS011;4524;51.364;5.448;2023-08-31T03:10:05;12.95;;;3.00;;
8978;SDS011;4524;51.364;5.448;2023-08-31T03:12:34;7.00;;;2.78;;
8978;SDS011;4524;51.364;5.448;2023-08-31T03:15:02;6.35;;;2.67;;
8978;SDS011;4524;51.364;5.448;2023-08-31T03:17:33;7.45;;;2.55;;
8978;SDS011;4524;51.364;5.448;2023-08-31T03:20:01;4.85;;;2.17;;
8978;SDS011;4524;51.364;5.448;2023-08-31T03:22:32;5.03;;;2.58;;
8978;SDS011;4524;51.364;5.448;2023-08-31T03:25:01;5.43;;;2.60;;
8978;SDS011;4524;51.364;5.448;2023-08-31T03:27:30;6.22;;;2.80;;
8978;SDS011;4524;51.364;5.448;2023-08-31T03:30:00;4.07;;;2.30;;
8978;SDS011;4524;51.364;5.448;2023-08-31T03:32:28;4.35;;;2.25;;
8978;SDS011;4524;51.364;5.448;2023-08-31T03:37:48;5.80;;;2.53;;
8978;SDS011;4524;51.364;5.448;2023-08-31T03:40:16;4.25;;;2.13;;
8978;SDS011;4524;51.364;5.448;2023-08-31T03:42:44;5.70;;;2.85;;
8978;SDS011;4524;51.364;5.448;2023-08-31T03:45:12;3.97;;;2.25;;
8978;SDS011;4524;51.364;5.448;2023-08-31T03:48:00;7.85;;;2.95;;
8978;SDS011;4524;51.364;5.448;2023-08-31T03:50:28;6.40;;;3.00;;
8978;SDS011;4524;51.364;5.448;2023-08-31T03:52:58;7.25;;;2.58;;
8978;SDS011;4524;51.364;5.448;2023-08-31T03:55:26;5.65;;;2.83;;
8978;SDS011;4524;51.364;5.448;2023-08-31T03:57:55;5.70;;;2.50;;
8978;SDS011;4524;51.364;5.448;2023-08-31T04:02:53;7.40;;;3.05;;
8978;SDS011;4524;51.364;5.448;2023-08-31T04:05:23;7.70;;;2.78;;
8978;SDS011;4524;51.364;5.448;2023-08-31T04:08:12;6.65;;;3.08;;
8978;SDS011;4524;51.364;5.448;2023-08-31T04:10:41;5.05;;;2.70;;
8978;SDS011;4524;51.364;5.448;2023-08-31T04:13:09;5.88;;;2.90;;
8978;SDS011;4524;51.364;5.448;2023-08-31T04:15:37;7.70;;;3.42;;
8978;SDS011;4524;51.364;5.448;2023-08-31T04:18:05;4.65;;;2.95;;
8978;SDS011;4524;51.364;5.448;2023-08-31T04:20:34;8.13;;;3.22;;
8978;SDS011;4524;51.364;5.448;2023-08-31T04:23:02;5.72;;;2.58;;
8978;SDS011;4524;51.364;5.448;2023-08-31T04:25:31;4.18;;;2.45;;
8978;SDS011;4524;51.364;5.448;2023-08-31T04:27:59;4.22;;;2.13;;
8978;SDS011;4524;51.364;5.448;2023-08-31T04:30:28;6.88;;;2.70;;
8978;SDS011;4524;51.364;5.448;2023-08-31T04:32:57;5.20;;;2.10;;
8978;SDS011;4524;51.364;5.448;2023-08-31T04:35:25;6.88;;;3.38;;
8978;SDS011;4524;51.364;5.448;2023-08-31T04:37:53;4.15;;;2.17;;
8978;SDS011;4524;51.364;5.448;2023-08-31T04:40:21;4.10;;;2.30;;
8978;SDS011;4524;51.364;5.448;2023-08-31T04:42:50;5.30;;;3.03;;
8978;SDS011;4524;51.364;5.448;2023-08-31T04:45:19;4.70;;;2.53;;
8978;SDS011;4524;51.364;5.448;2023-08-31T04:47:47;6.50;;;2.75;;
8978;SDS011;4524;51.364;5.448;2023-08-31T04:50:15;6.28;;;2.63;;
8978;SDS011;4524;51.364;5.448;2023-08-31T04:52:43;7.47;;;3.05;;
8978;SDS011;4524;51.364;5.448;2023-08-31T04:55:12;5.50;;;2.50;;
8978;SDS011;4524;51.364;5.448;2023-08-31T04:57:40;5.95;;;2.67;;
8978;SDS011;4524;51.364;5.448;2023-08-31T05:00:10;6.78;;;3.15;;
8978;SDS011;4524;51.364;5.448;2023-08-31T05:02:39;6.75;;;2.60;;
8978;SDS011;4524;51.364;5.448;2023-08-31T05:05:07;6.57;;;3.13;;
8978;SDS011;4524;51.364;5.448;2023-08-31T05:07:36;7.20;;;3.42;;
8978;SDS011;4524;51.364;5.448;2023-08-31T05:10:24;3.72;;;2.40;;
8978;SDS011;4524;51.364;5.448;2023-08-31T05:12:52;6.07;;;3.08;;
8978;SDS011;4524;51.364;5.448;2023-08-31T05:15:21;6.10;;;3.38;;
8978;SDS011;4524;51.364;5.448;2023-08-31T05:17:53;7.72;;;2.20;;
8978;SDS011;4524;51.364;5.448;2023-08-31T05:20:22;9.55;;;3.30;;
8978;SDS011;4524;51.364;5.448;2023-08-31T05:22:50;6.05;;;2.35;;
8978;SDS011;4524;51.364;5.448;2023-08-31T05:25:18;7.32;;;2.80;;
8978;SDS011;4524;51.364;5.448;2023-08-31T05:27:46;6.53;;;3.22;;
8978;SDS011;4524;51.364;5.448;2023-08-31T05:30:14;7.35;;;3.08;;
8978;SDS011;4524;51.364;5.448;2023-08-31T05:32:43;4.72;;;2.22;;
8978;SDS011;4524;51.364;5.448;2023-08-31T05:35:11;4.80;;;3.05;;
8978;SDS011;4524;51.364;5.448;2023-08-31T05:37:39;6.47;;;3.35;;
8978;SDS011;4524;51.364;5.448;2023-08-31T05:40:08;5.22;;;2.58;;
8978;SDS011;4524;51.364;5.448;2023-08-31T05:42:37;5.75;;;3.20;;
8978;SDS011;4524;51.364;5.448;2023-08-31T05:45:05;7.43;;;2.75;;
8978;SDS011;4524;51.364;5.448;2023-08-31T05:47:35;4.07;;;1.92;;
8978;SDS011;4524;51.364;5.448;2023-08-31T05:50:05;4.95;;;2.72;;
8978;SDS011;4524;51.364;5.448;2023-08-31T05:52:52;5.63;;;3.17;;
8978;SDS011;4524;51.364;5.448;2023-08-31T05:55:20;6.03;;;2.70;;
8978;SDS011;4524;51.364;5.448;2023-08-31T05:57:48;6.45;;;2.53;;
8978;SDS011;4524;51.364;5.448;2023-08-31T06:00:17;6.60;;;2.22;;
8978;SDS011;4524;51.364;5.448;2023-08-31T06:02:46;7.53;;;2.80;;
8978;SDS011;4524;51.364;5.448;2023-08-31T06:05:15;4.30;;;2.25;;
8978;SDS011;4524;51.364;5.448;2023-08-31T06:07:43;5.30;;;3.10;;
8978;SDS011;4524;51.364;5.448;2023-08-31T06:10:12;6.88;;;2.72;;
8978;SDS011;4524;51.364;5.448;2023-08-31T06:12:41;4.25;;;2.40;;
8978;SDS011;4524;51.364;5.448;2023-08-31T06:15:09;7.22;;;2.92;;
8978;SDS011;4524;51.364;5.448;2023-08-31T06:17:37;5.45;;;2.80;;
8978;SDS011;4524;51.364;5.448;2023-08-31T06:20:06;6.50;;;3.55;;
8978;SDS011;4524;51.364;5.448;2023-08-31T06:22:37;9.05;;;2.97;;
8978;SDS011;4524;51.364;5.448;2023-08-31T06:25:05;5.75;;;2.97;;
8978;SDS011;4524;51.364;5.448;2023-08-31T06:27:34;7.30;;;3.30;;
8978;SDS011;4524;51.364;5.448;2023-08-31T06:30:03;6.95;;;2.88;;
8978;SDS011;4524;51.364;5.448;2023-08-31T06:32:33;4.07;;;2.05;;
8978;SDS011;4524;51.364;5.448;2023-08-31T06:35:02;4.65;;;2.42;;
8978;SDS011;4524;51.364;5.448;2023-08-31T06:37:30;6.13;;;3.22;;
8978;SDS011;4524;51.364;5.448;2023-08-31T06:39:59;7.00;;;3.10;;
8978;SDS011;4524;51.364;5.448;2023-08-31T06:42:27;7.47;;;2.95;;
8978;SDS011;4524;51.364;5.448;2023-08-31T06:44:55;7.72;;;2.70;;
8978;SDS011;4524;51.364;5.448;2023-08-31T06:47:23;8.82;;;2.50;;
8978;SDS011;4524;51.364;5.448;2023-08-31T06:49:52;5.55;;;3.03;;
8978;SDS011;4524;51.364;5.448;2023-08-31T06:52:20;5.93;;;3.10;;
8978;SDS011;4524;51.364;5.448;2023-08-31T06:54:54;10.13;;;2.92;;
8978;SDS011;4524;51.364;5.448;2023-08-31T06:57:42;7.32;;;3.35;;
8978;SDS011;4524;51.364;5.448;2023-08-31T07:00:11;8.57;;;3.38;;
8978;SDS011;4524;51.364;5.448;2023-08-31T07:02:40;7.18;;;2.60;;
8978;SDS011;4524;51.364;5.448;2023-08-31T07:05:09;7.97;;;2.45;;
8978;SDS011;4524;51.364;5.448;2023-08-31T07:07:38;10.63;;;3.72;;
8978;SDS011;4524;51.364;5.448;2023-08-31T07:10:06;8.73;;;2.95;;
8978;SDS011;4524;51.364;5.448;2023-08-31T07:12:35;5.43;;;2.85;;
8978;SDS011;4524;51.364;5.448;2023-08-31T07:15:05;4.35;;;2.45;;
8978;SDS011;4524;51.364;5.448;2023-08-31T07:17:33;9.15;;;3.90;;
8978;SDS011;4524;51.364;5.448;2023-08-31T07:20:01;6.63;;;2.35;;
8978;SDS011;4524;51.364;5.448;2023-08-31T07:22:32;3.15;;;1.70;;
8978;SDS011;4524;51.364;5.448;2023-08-31T07:30:38;6.57;;;2.90;;
8978;SDS011;4524;51.364;5.448;2023-08-31T07:33:06;6.30;;;2.60;;
8978;SDS011;4524;51.364;5.448;2023-08-31T07:35:54;11.73;;;2.75;;
8978;SDS011;4524;51.364;5.448;2023-08-31T07:38:24;9.15;;;3.47;;
8978;SDS011;4524;51.364;5.448;2023-08-31T07:40:52;13.07;;;3.90;;
8978;SDS011;4524;51.364;5.448;2023-08-31T07:43:20;9.25;;;2.67;;
8978;SDS011;4524;51.364;5.448;2023-08-31T07:45:50;9.00;;;2.80;;
8978;SDS011;4524;51.364;5.448;2023-08-31T07:48:18;6.53;;;2.10;;
8978;SDS011;4524;51.364;5.448;2023-08-31T07:50:46;5.60;;;2.05;;
8978;SDS011;4524;51.364;5.448;2023-08-31T07:53:15;6.60;;;2.53;;
8978;SDS011;4524;51.364;5.448;2023-08-31T07:55:50;8.60;;;3.53;;
8978;SDS011;4524;51.364;5.448;2023-08-31T07:58:20;5.70;;;2.28;;
8978;SDS011;4524;51.364;5.448;2023-08-31T08:00:51;6.70;;;2.75;;
8978;SDS011;4524;51.364;5.448;2023-08-31T08:03:20;3.22;;;2.00;;
8978;SDS011;4524;51.364;5.448;2023-08-31T08:05:49;6.95;;;3.00;;
8978;SDS011;4524;51.364;5.448;2023-08-31T08:08:17;7.72;;;2.90;;
8978;SDS011;4524;51.364;5.448;2023-08-31T08:11:05;12.88;;;3.22;;
8978;SDS011;4524;51.364;5.448;2023-08-31T08:13:33;8.68;;;3.08;;
8978;SDS011;4524;51.364;5.448;2023-08-31T08:16:02;11.35;;;3.13;;
8978;SDS011;4524;51.364;5.448;2023-08-31T08:21:19;7.95;;;3.83;;
8978;SDS011;4524;51.364;5.448;2023-08-31T08:23:48;4.65;;;2.42;;
8978;SDS011;4524;51.364;5.448;2023-08-31T08:26:17;6.82;;;2.85;;
8978;SDS011;4524;51.364;5.448;2023-08-31T08:28:45;7.28;;;3.30;;
8978;SDS011;4524;51.364;5.448;2023-08-31T08:31:14;3.72;;;1.55;;
8978;SDS011;4524;51.364;5.448;2023-08-31T08:36:32;7.25;;;3.20;;
8978;SDS011;4524;51.364;5.448;2023-08-31T08:39:01;10.68;;;2.95;;
8978;SDS011;4524;51.364;5.448;2023-08-31T08:41:30;9.02;;;2.65;;
8978;SDS011;4524;51.364;5.448;2023-08-31T08:44:01;10.73;;;2.83;;
8978;SDS011;4524;51.364;5.448;2023-08-31T08:46:32;7.18;;;3.42;;
8978;SDS011;4524;51.364;5.448;2023-08-31T08:49:01;8.45;;;2.13;;
8978;SDS011;4524;51.364;5.448;2023-08-31T08:51:31;5.13;;;2.67;;
8978;SDS011;4524;51.364;5.448;2023-08-31T08:54:00;5.07;;;2.10;;
8978;SDS011;4524;51.364;5.448;2023-08-31T08:56:29;4.53;;;2.33;;
8978;SDS011;4524;51.364;5.448;2023-08-31T08:58:57;8.75;;;2.67;;
8978;SDS011;4524;51.364;5.448;2023-08-31T09:01:25;8.55;;;2.55;;
8978;SDS011;4524;51.364;5.448;2023-08-31T09:06:23;10.52;;;2.38;;
8978;SDS011;4524;51.364;5.448;2023-08-31T09:08:54;5.82;;;2.63;;
8978;SDS011;4524;51.364;5.448;2023-08-31T09:11:23;6.75;;;2.17;;
8978;SDS011;4524;51.364;5.448;2023-08-31T09:13:52;8.48;;;2.20;;
8978;SDS011;4524;51.364;5.448;2023-08-31T09:16:24;5.20;;;1.85;;
8978;SDS011;4524;51.364;5.448;2023-08-31T09:18:56;5.78;;;2.03;;
8978;SDS011;4524;51.364;5.448;2023-08-31T09:21:34;5.68;;;2.60;;
8978;SDS011;4524;51.364;5.448;2023-08-31T09:24:03;6.45;;;2.08;;
8978;SDS011;4524;51.364;5.448;2023-08-31T09:26:37;5.20;;;1.80;;
8978;SDS011;4524;51.364;5.448;2023-08-31T09:29:06;4.55;;;1.77;;
8978;SDS011;4524;51.364;5.448;2023-08-31T09:31:34;13.05;;;3.03;;
8978;SDS011;4524;51.364;5.448;2023-08-31T09:34:04;11.15;;;2.30;;
8978;SDS011;4524;51.364;5.448;2023-08-31T09:36:32;5.05;;;2.38;;
8978;SDS011;4524;51.364;5.448;2023-08-31T09:39:00;4.50;;;1.85;;
8978;SDS011;4524;51.364;5.448;2023-08-31T09:41:28;5.63;;;1.73;;
8978;SDS011;4524;51.364;5.448;2023-08-31T09:43:56;10.35;;;2.00;;
8978;SDS011;4524;51.364;5.448;2023-08-31T09:46:42;7.07;;;2.03;;
8978;SDS011;4524;51.364;5.448;2023-08-31T09:49:13;3.03;;;1.80;;
8978;SDS011;4524;51.364;5.448;2023-08-31T09:51:43;7.38;;;2.03;;
8978;SDS011;4524;51.364;5.448;2023-08-31T09:54:13;4.90;;;1.45;;
8978;SDS011;4524;51.364;5.448;2023-08-31T09:56:43;5.22;;;1.73;;
8978;SDS011;4524;51.364;5.448;2023-08-31T09:59:13;5.35;;;1.83;;
8978;SDS011;4524;51.364;5.448;2023-08-31T10:01:43;5.82;;;2.03;;
8978;SDS011;4524;51.364;5.448;2023-08-31T10:04:14;5.03;;;1.77;;
8978;SDS011;4524;51.364;5.448;2023-08-31T10:06:43;7.90;;;1.85;;
8978;SDS011;4524;51.364;5.448;2023-08-31T10:09:11;5.85;;;1.73;;
8978;SDS011;4524;51.364;5.448;2023-08-31T10:11:41;6.10;;;1.77;;
8978;SDS011;4524;51.364;5.448;2023-08-31T10:14:10;10.32;;;1.42;;
8978;SDS011;4524;51.364;5.448;2023-08-31T10:16:39;2.92;;;1.42;;
8978;SDS011;4524;51.364;5.448;2023-08-31T10:19:08;7.97;;;1.75;;
8978;SDS011;4524;51.364;5.448;2023-08-31T10:24:07;6.07;;;1.95;;
8978;SDS011;4524;51.364;5.448;2023-08-31T10:26:35;6.85;;;2.13;;
8978;SDS011;4524;51.364;5.448;2023-08-31T10:29:03;4.93;;;1.80;;
8978;SDS011;4524;51.364;5.448;2023-08-31T10:31:33;4.15;;;2.17;;
8978;SDS011;4524;51.364;5.448;2023-08-31T10:34:02;10.88;;;3.20;;
8978;SDS011;4524;51.364;5.448;2023-08-31T10:36:34;5.65;;;1.65;;
8978;SDS011;4524;51.364;5.448;2023-08-31T10:39:06;3.78;;;1.63;;
8978;SDS011;4524;51.364;5.448;2023-08-31T10:41:39;5.38;;;1.38;;
8978;SDS011;4524;51.364;5.448;2023-08-31T10:44:17;4.35;;;1.80;;
8978;SDS011;4524;51.364;5.448;2023-08-31T10:46:47;6.85;;;2.25;;
8978;SDS011;4524;51.364;5.448;2023-08-31T10:49:16;7.57;;;2.63;;
8978;SDS011;4524;51.364;5.448;2023-08-31T10:52:17;3.40;;;1.30;;
8978;SDS011;4524;51.364;5.448;2023-08-31T10:55:07;5.40;;;1.90;;
8978;SDS011;4524;51.364;5.448;2023-08-31T10:57:35;5.60;;;1.63;;
8978;SDS011;4524;51.364;5.448;2023-08-31T11:00:03;5.40;;;1.80;;
8978;SDS011;4524;51.364;5.448;2023-08-31T11:02:35;4.25;;;1.58;;
8978;SDS011;4524;51.364;5.448;2023-08-31T11:05:08;4.28;;;1.83;;
8978;SDS011;4524;51.364;5.448;2023-08-31T11:07:57;7.50;;;2.20;;
8978;SDS011;4524;51.364;5.448;2023-08-31T11:10:30;5.68;;;2.03;;
8978;SDS011;4524;51.364;5.448;2023-08-31T11:13:18;3.75;;;1.73;;
8978;SDS011;4524;51.364;5.448;2023-08-31T11:15:46;3.03;;;1.40;;
8978;SDS011;4524;51.364;5.448;2023-08-31T11:18:15;7.88;;;2.00;;
8978;SDS011;4524;51.364;5.448;2023-08-31T11:20:44;5.40;;;1.60;;
8978;SDS011;4524;51.364;5.448;2023-08-31T11:23:33;4.53;;;1.98;;
8978;SDS011;4524;51.364;5.448;2023-08-31T11:26:04;3.15;;;1.48;;
8978;SDS011;4524;51.364;5.448;2023-08-31T11:28:33;3.30;;;1.48;;
8978;SDS011;4524;51.364;5.448;2023-08-31T11:31:01;6.63;;;2.00;;
8978;SDS011;4524;51.364;5.448;2023-08-31T11:33:31;10.30;;;2.00;;
8978;SDS011;4524;51.364;5.448;2023-08-31T11:36:00;3.03;;;1.20;;
8978;SDS011;4524;51.364;5.448;2023-08-31T11:38:28;6.18;;;1.65;;
8978;SDS011;4524;51.364;5.448;2023-08-31T11:40:57;9.32;;;1.67;;
8978;SDS011;4524;51.364;5.448;2023-08-31T11:43:28;4.43;;;1.67;;
8978;SDS011;4524;51.364;5.448;2023-08-31T11:45:56;5.65;;;1.75;;
8978;SDS011;4524;51.364;5.448;2023-08-31T11:48:27;4.30;;;1.52;;
8978;SDS011;4524;51.364;5.448;2023-08-31T11:50:55;4.13;;;1.60;;
8978;SDS011;4524;51.364;5.448;2023-08-31T11:53:24;4.90;;;1.33;;
8978;SDS011;4524;51.364;5.448;2023-08-31T11:55:52;5.93;;;1.90;;
8978;SDS011;4524;51.364;5.448;2023-08-31T11:58:20;3.67;;;1.58;;
8978;SDS011;4524;51.364;5.448;2023-08-31T12:00:58;7.68;;;1.42;;
8978;SDS011;4524;51.364;5.448;2023-08-31T12:03:27;9.50;;;2.03;;
8978;SDS011;4524;51.364;5.448;2023-08-31T12:06:14;6.35;;;1.73;;
8978;SDS011;4524;51.364;5.448;2023-08-31T12:08:44;6.45;;;1.90;;
8978;SDS011;4524;51.364;5.448;2023-08-31T12:11:12;11.90;;;1.90;;
8978;SDS011;4524;51.364;5.448;2023-08-31T12:13:41;7.38;;;1.73;;
8978;SDS011;4524;51.364;5.448;2023-08-31T12:16:13;6.90;;;1.83;;
8978;SDS011;4524;51.364;5.448;2023-08-31T12:18:43;4.72;;;1.58;;
8978;SDS011;4524;51.364;5.448;2023-08-31T12:21:12;11.85;;;2.35;;
8978;SDS011;4524;51.364;5.448;2023-08-31T12:23:40;3.80;;;1.45;;
8978;SDS011;4524;51.364;5.448;2023-08-31T12:26:08;5.03;;;1.65;;
8978;SDS011;4524;51.364;5.448;2023-08-31T12:28:36;5.88;;;1.35;;
8978;SDS011;4524;51.364;5.448;2023-08-31T12:31:04;5.07;;;1.40;;
8978;SDS011;4524;51.364;5.448;2023-08-31T12:33:33;5.47;;;1.38;;
8978;SDS011;4524;51.364;5.448;2023-08-31T12:36:01;5.60;;;2.38;;
8978;SDS011;4524;51.364;5.448;2023-08-31T12:38:30;6.50;;;1.15;;
8978;SDS011;4524;51.364;5.448;2023-08-31T12:40:59;3.28;;;1.50;;
8978;SDS011;4524;51.364;5.448;2023-08-31T12:43:29;2.95;;;1.25;;
8978;SDS011;4524;51.364;5.448;2023-08-31T12:45:57;4.80;;;1.23;;
8978;SDS011;4524;51.364;5.448;2023-08-31T12:48:26;5.68;;;1.33;;
8978;SDS011;4524;51.364;5.448;2023-08-31T12:50:55;3.78;;;1.10;;
8978;SDS011;4524;51.364;5.448;2023-08-31T12:53:23;4.20;;;1.23;;
8978;SDS011;4524;51.364;5.448;2023-08-31T12:55:51;2.55;;;1.23;;
8978;SDS011;4524;51.364;5.448;2023-08-31T12:58:20;3.90;;;1.30;;
8978;SDS011;4524;51.364;5.448;2023-08-31T13:00:49;2.80;;;1.20;;
8978;SDS011;4524;51.364;5.448;2023-08-31T13:03:19;2.35;;;1.20;;
8978;SDS011;4524;51.364;5.448;2023-08-31T13:05:47;3.90;;;1.13;;
8978;SDS011;4524;51.364;5.448;2023-08-31T13:08:18;5.00;;;1.52;;
8978;SDS011;4524;51.364;5.448;2023-08-31T13:10:50;3.53;;;1.27;;
8978;SDS011;4524;51.364;5.448;2023-08-31T13:13:18;2.42;;;1.00;;
8978;SDS011;4524;51.364;5.448;2023-08-31T13:15:47;2.83;;;1.00;;
8978;SDS011;4524;51.364;5.448;2023-08-31T13:20:48;4.10;;;1.10;;
8978;SDS011;4524;51.364;5.448;2023-08-31T13:23:17;7.95;;;2.83;;
8978;SDS011;4524;51.364;5.448;2023-08-31T13:25:46;6.15;;;2.53;;
8978;SDS011;4524;51.364;5.448;2023-08-31T13:28:14;4.43;;;1.60;;
8978;SDS011;4524;51.364;5.448;2023-08-31T13:30:42;4.72;;;2.38;;
8978;SDS011;4524;51.364;5.448;2023-08-31T13:33:10;6.43;;;3.03;;
8978;SDS011;4524;51.364;5.448;2023-08-31T13:35:58;4.65;;;2.72;;
8978;SDS011;4524;51.364;5.448;2023-08-31T13:38:28;6.03;;;3.08;;
8978;SDS011;4524;51.364;5.448;2023-08-31T13:40:56;5.55;;;2.88;;
8978;SDS011;4524;51.364;5.448;2023-08-31T13:43:24;4.35;;;2.75;;
8978;SDS011;4524;51.364;5.448;2023-08-31T13:45:52;5.38;;;3.08;;
8978;SDS011;4524;51.364;5.448;2023-08-31T13:48:20;4.78;;;2.28;;
8978;SDS011;4524;51.364;5.448;2023-08-31T13:50:49;6.82;;;3.10;;
8978;SDS011;4524;51.364;5.448;2023-08-31T13:53:17;3.08;;;2.17;;
8978;SDS011;4524;51.364;5.448;2023-08-31T13:55:47;5.07;;;2.92;;
8978;SDS011;4524;51.364;5.448;2023-08-31T13:58:15;7.30;;;3.00;;
8978;SDS011;4524;51.364;5.448;2023-08-31T14:00:43;7.28;;;3.15;;
8978;SDS011;4524;51.364;5.448;2023-08-31T14:03:11;8.38;;;4.25;;
8978;SDS011;4524;51.364;5.448;2023-08-31T14:05:39;6.68;;;3.17;;
8978;SDS011;4524;51.364;5.448;2023-08-31T14:08:08;5.70;;;3.00;;
8978;SDS011;4524;51.364;5.448;2023-08-31T14:10:39;7.03;;;2.60;;
8978;SDS011;4524;51.364;5.448;2023-08-31T14:13:08;4.40;;;2.42;;
8978;SDS011;4524;51.364;5.448;2023-08-31T14:15:37;4.28;;;2.92;;
8978;SDS011;4524;51.364;5.448;2023-08-31T14:18:10;5.85;;;2.75;;
8978;SDS011;4524;51.364;5.448;2023-08-31T14:23:06;5.60;;;2.65;;
8978;SDS011;4524;51.364;5.448;2023-08-31T14:28:04;4.88;;;2.53;;
8978;SDS011;4524;51.364;5.448;2023-08-31T14:30:36;2.92;;;1.77;;
8978;SDS011;4524;51.364;5.448;2023-08-31T14:33:04;4.95;;;3.08;;
8978;SDS011;4524;51.364;5.448;2023-08-31T14:35:35;7.00;;;3.10;;
8978;SDS011;4524;51.364;5.448;2023-08-31T14:38:04;7.85;;;3.30;;
8978;SDS011;4524;51.364;5.448;2023-08-31T14:40:32;8.35;;;2.83;;
8978;SDS011;4524;51.364;5.448;2023-08-31T14:43:03;7.35;;;3.28;;
8978;SDS011;4524;51.364;5.448;2023-08-31T14:45:31;9.30;;;3.00;;
8978;SDS011;4524;51.364;5.448;2023-08-31T14:48:01;6.28;;;3.15;;
8978;SDS011;4524;51.364;5.448;2023-08-31T14:50:29;4.93;;;3.00;;
8978;SDS011;4524;51.364;5.448;2023-08-31T14:52:57;5.93;;;3.10;;
8978;SDS011;4524;51.364;5.448;2023-08-31T14:55:26;4.22;;;3.03;;
8978;SDS011;4524;51.364;5.448;2023-08-31T14:57:54;5.72;;;2.35;;
8978;SDS011;4524;51.364;5.448;2023-08-31T15:00:22;5.88;;;2.97;;
8978;SDS011;4524;51.364;5.448;2023-08-31T15:02:50;7.93;;;2.63;;
8978;SDS011;4524;51.364;5.448;2023-08-31T15:05:19;7.85;;;2.40;;
8978;SDS011;4524;51.364;5.448;2023-08-31T15:07:50;7.40;;;2.70;;
8978;SDS011;4524;51.364;5.448;2023-08-31T15:10:18;5.38;;;2.75;;
8978;SDS011;4524;51.364;5.448;2023-08-31T15:12:47;5.80;;;2.05;;
8978;SDS011;4524;51.364;5.448;2023-08-31T15:15:17;5.00;;;1.77;;
8978;SDS011;4524;51.364;5.448;2023-08-31T15:18:07;6.65;;;1.65;;
8978;SDS011;4524;51.364;5.448;2023-08-31T15:23:08;5.65;;;1.40;;
8978;SDS011;4524;51.364;5.448;2023-08-31T15:25:58;9.02;;;1.77;;
8978;SDS011;4524;51.364;5.448;2023-08-31T15:28:27;2.78;;;1.08;;
8978;SDS011;4524;51.364;5.448;2023-08-31T15:30:55;4.35;;;1.25;;
8978;SDS011;4524;51.364;5.448;2023-08-31T15:33:23;2.58;;;1.20;;
8978;SDS011;4524;51.364;5.448;2023-08-31T15:36:00;3.30;;;1.60;;
8978;SDS011;4524;51.364;5.448;2023-08-31T15:38:30;3.50;;;1.27;;
8978;SDS011;4524;51.364;5.448;2023-08-31T15:43:29;3.83;;;1.50;;
8978;SDS011;4524;51.364;5.448;2023-08-31T15:45:58;3.30;;;1.33;;
8978;SDS011;4524;51.364;5.448;2023-08-31T15:48:26;6.65;;;2.22;;
8978;SDS011;4524;51.364;5.448;2023-08-31T15:50:57;4.93;;;1.70;;
8978;SDS011;4524;51.364;5.448;2023-08-31T15:53:26;4.32;;;1.30;;
8978;SDS011;4524;51.364;5.448;2023-08-31T15:55:55;5.00;;;1.30;;
8978;SDS011;4524;51.364;5.448;2023-08-31T16:00:53;7.68;;;1.48;;
8978;SDS011;4524;51.364;5.448;2023-08-31T16:06:17;4.30;;;1.50;;
8978;SDS011;4524;51.364;5.448;2023-08-31T16:08:45;7.15;;;2.03;;
8978;SDS011;4524;51.364;5.448;2023-08-31T16:11:13;5.45;;;1.60;;
8978;SDS011;4524;51.364;5.448;2023-08-31T16:13:42;4.07;;;1.33;;
8978;SDS011;4524;51.364;5.448;2023-08-31T16:16:10;5.80;;;1.70;;
8978;SDS011;4524;51.364;5.448;2023-08-31T16:18:38;7.03;;;1.40;;